sensor_id;sensor_type;location;lat;lon;timestamp;P1;durP1;ratioP1;P2;durP2;ratioP2
12869;SDS011;6503;48.572;13.460;2023-02-16T00:01:33;57.75;;;20.70;;
12869;SDS011;6503;48.572;13.460;2023-02-16T00:04:00;62.28;;;22.30;;
12869;SDS011;6503;48.572;13.460;2023-02-16T00:06:34;60.90;;;21.27;;
12869;SDS011;6503;48.572;13.460;2023-02-16T00:09:00;57.40;;;20.48;;
12869;SDS011;6503;48.572;13.460;2023-02-16T00:11:29;59.60;;;22.70;;
12869;SDS011;6503;48.572;13.460;2023-02-16T00:14:15;56.10;;;21.05;;
12869;SDS011;6503;48.572;13.460;2023-02-16T00:16:44;55.80;;;21.60;;
12869;SDS011;6503;48.572;13.460;2023-02-16T00:19:16;52.03;;;20.77;;
12869;SDS011;6503;48.572;13.460;2023-02-16T00:21:45;55.25;;;21.02;;
12869;SDS011;6503;48.572;13.460;2023-02-16T00:24:13;59.58;;;21.33;;
12869;SDS011;6503;48.572;13.460;2023-02-16T00:26:40;62.80;;;22.50;;
12869;SDS011;6503;48.572;13.460;2023-02-16T00:29:09;55.78;;;21.55;;
12869;SDS011;6503;48.572;13.460;2023-02-16T00:31:40;56.55;;;21.48;;
12869;SDS011;6503;48.572;13.460;2023-02-16T00:34:14;55.45;;;20.70;;
12869;SDS011;6503;48.572;13.460;2023-02-16T00:36:54;57.70;;;20.90;;
12869;SDS011;6503;48.572;13.460;2023-02-16T00:39:23;55.97;;;20.73;;
12869;SDS011;6503;48.572;13.460;2023-02-16T00:41:50;53.63;;;20.85;;
12869;SDS011;6503;48.572;13.460;2023-02-16T00:44:19;53.15;;;20.50;;
12869;SDS011;6503;48.572;13.460;2023-02-16T00:46:47;53.07;;;20.60;;
12869;SDS011;6503;48.572;13.460;2023-02-16T00:49:16;63.10;;;22.02;;
12869;SDS011;6503;48.572;13.460;2023-02-16T00:51:44;54.20;;;21.30;;
12869;SDS011;6503;48.572;13.460;2023-02-16T00:54:12;53.70;;;20.60;;
12869;SDS011;6503;48.572;13.460;2023-02-16T00:56:39;63.58;;;22.40;;
12869;SDS011;6503;48.572;13.460;2023-02-16T00:59:10;57.63;;;21.77;;
12869;SDS011;6503;48.572;13.460;2023-02-16T01:01:41;56.55;;;21.20;;
12869;SDS011;6503;48.572;13.460;2023-02-16T01:04:10;57.50;;;21.67;;
12869;SDS011;6503;48.572;13.460;2023-02-16T01:06:43;47.70;;;19.38;;
12869;SDS011;6503;48.572;13.460;2023-02-16T01:09:28;43.83;;;18.60;;
12869;SDS011;6503;48.572;13.460;2023-02-16T01:12:13;49.75;;;19.45;;
12869;SDS011;6503;48.572;13.460;2023-02-16T01:14:42;53.97;;;20.80;;
12869;SDS011;6503;48.572;13.460;2023-02-16T01:17:12;48.45;;;19.98;;
12869;SDS011;6503;48.572;13.460;2023-02-16T01:19:39;57.38;;;22.63;;
12869;SDS011;6503;48.572;13.460;2023-02-16T01:22:08;56.03;;;20.05;;
12869;SDS011;6503;48.572;13.460;2023-02-16T01:24:35;62.47;;;20.42;;
12869;SDS011;6503;48.572;13.460;2023-02-16T01:27:02;68.15;;;23.33;;
12869;SDS011;6503;48.572;13.460;2023-02-16T01:29:31;60.60;;;21.50;;
12869;SDS011;6503;48.572;13.460;2023-02-16T01:31:58;68.97;;;23.70;;
12869;SDS011;6503;48.572;13.460;2023-02-16T01:34:24;67.32;;;24.02;;
12869;SDS011;6503;48.572;13.460;2023-02-16T01:36:52;71.43;;;24.45;;
12869;SDS011;6503;48.572;13.460;2023-02-16T01:39:20;67.68;;;23.75;;
12869;SDS011;6503;48.572;13.460;2023-02-16T01:41:55;80.20;;;24.08;;
12869;SDS011;6503;48.572;13.460;2023-02-16T01:44:32;70.35;;;24.98;;
12869;SDS011;6503;48.572;13.460;2023-02-16T01:47:04;79.15;;;25.42;;
12869;SDS011;6503;48.572;13.460;2023-02-16T01:49:44;81.40;;;26.23;;
12869;SDS011;6503;48.572;13.460;2023-02-16T01:52:12;75.50;;;24.95;;
12869;SDS011;6503;48.572;13.460;2023-02-16T01:54:50;68.60;;;23.42;;
12869;SDS011;6503;48.572;13.460;2023-02-16T01:57:23;72.55;;;24.00;;
12869;SDS011;6503;48.572;13.460;2023-02-16T02:00:00;69.00;;;23.35;;
12869;SDS011;6503;48.572;13.460;2023-02-16T02:02:33;70.68;;;24.10;;
12869;SDS011;6503;48.572;13.460;2023-02-16T02:05:05;73.45;;;24.55;;
12869;SDS011;6503;48.572;13.460;2023-02-16T02:07:57;69.80;;;23.88;;
12869;SDS011;6503;48.572;13.460;2023-02-16T02:10:29;70.07;;;23.70;;
12869;SDS011;6503;48.572;13.460;2023-02-16T02:13:08;65.97;;;23.02;;
12869;SDS011;6503;48.572;13.460;2023-02-16T02:15:40;63.53;;;22.63;;
12869;SDS011;6503;48.572;13.460;2023-02-16T02:18:07;64.55;;;23.23;;
12869;SDS011;6503;48.572;13.460;2023-02-16T02:20:38;69.50;;;22.50;;
12869;SDS011;6503;48.572;13.460;2023-02-16T02:23:37;63.97;;;23.75;;
12869;SDS011;6503;48.572;13.460;2023-02-16T02:29:16;68.10;;;22.40;;
12869;SDS011;6503;48.572;13.460;2023-02-16T02:31:54;69.57;;;23.00;;
12869;SDS011;6503;48.572;13.460;2023-02-16T02:34:32;65.43;;;22.42;;
12869;SDS011;6503;48.572;13.460;2023-02-16T02:37:09;62.63;;;23.10;;
12869;SDS011;6503;48.572;13.460;2023-02-16T02:39:44;66.80;;;22.42;;
12869;SDS011;6503;48.572;13.460;2023-02-16T02:42:22;59.25;;;21.45;;
12869;SDS011;6503;48.572;13.460;2023-02-16T02:44:56;60.90;;;21.98;;
12869;SDS011;6503;48.572;13.460;2023-02-16T02:47:38;63.40;;;22.35;;
12869;SDS011;6503;48.572;13.460;2023-02-16T02:50:28;61.45;;;23.33;;
12869;SDS011;6503;48.572;13.460;2023-02-16T02:53:03;60.50;;;21.70;;
12869;SDS011;6503;48.572;13.460;2023-02-16T02:55:31;56.00;;;20.52;;
12869;SDS011;6503;48.572;13.460;2023-02-16T02:58:20;54.67;;;20.75;;
12869;SDS011;6503;48.572;13.460;2023-02-16T03:01:08;55.33;;;21.17;;
12869;SDS011;6503;48.572;13.460;2023-02-16T03:03:37;60.05;;;22.60;;
12869;SDS011;6503;48.572;13.460;2023-02-16T03:06:09;57.58;;;22.67;;
12869;SDS011;6503;48.572;13.460;2023-02-16T03:08:39;63.13;;;23.60;;
12869;SDS011;6503;48.572;13.460;2023-02-16T03:11:11;64.82;;;22.45;;
12869;SDS011;6503;48.572;13.460;2023-02-16T03:14:00;60.30;;;21.15;;
12869;SDS011;6503;48.572;13.460;2023-02-16T03:16:30;65.53;;;21.63;;
12869;SDS011;6503;48.572;13.460;2023-02-16T03:19:01;60.88;;;21.20;;
12869;SDS011;6503;48.572;13.460;2023-02-16T03:21:47;54.53;;;21.58;;
12869;SDS011;6503;48.572;13.460;2023-02-16T03:24:32;54.25;;;20.75;;
12869;SDS011;6503;48.572;13.460;2023-02-16T03:27:17;56.63;;;22.23;;
12869;SDS011;6503;48.572;13.460;2023-02-16T03:30:10;60.63;;;21.52;;
12869;SDS011;6503;48.572;13.460;2023-02-16T03:32:40;57.95;;;20.77;;
12869;SDS011;6503;48.572;13.460;2023-02-16T03:35:07;59.13;;;20.60;;
12869;SDS011;6503;48.572;13.460;2023-02-16T03:37:37;56.38;;;21.27;;
12869;SDS011;6503;48.572;13.460;2023-02-16T03:40:05;55.55;;;20.77;;
12869;SDS011;6503;48.572;13.460;2023-02-16T03:42:52;54.45;;;20.08;;
12869;SDS011;6503;48.572;13.460;2023-02-16T03:45:20;55.47;;;21.95;;
12869;SDS011;6503;48.572;13.460;2023-02-16T03:47:48;57.22;;;20.42;;
12869;SDS011;6503;48.572;13.460;2023-02-16T03:50:15;55.40;;;20.90;;
12869;SDS011;6503;48.572;13.460;2023-02-16T03:52:43;56.00;;;20.10;;
12869;SDS011;6503;48.572;13.460;2023-02-16T03:55:12;66.18;;;21.05;;
12869;SDS011;6503;48.572;13.460;2023-02-16T03:57:39;57.85;;;20.33;;
12869;SDS011;6503;48.572;13.460;2023-02-16T04:00:06;62.35;;;22.38;;
12869;SDS011;6503;48.572;13.460;2023-02-16T04:02:36;68.30;;;22.20;;
12869;SDS011;6503;48.572;13.460;2023-02-16T04:05:03;58.63;;;22.13;;
12869;SDS011;6503;48.572;13.460;2023-02-16T04:07:30;62.92;;;21.77;;
12869;SDS011;6503;48.572;13.460;2023-02-16T04:09:58;71.05;;;23.63;;
12869;SDS011;6503;48.572;13.460;2023-02-16T04:12:25;62.17;;;22.85;;
12869;SDS011;6503;48.572;13.460;2023-02-16T04:15:04;59.38;;;21.88;;
12869;SDS011;6503;48.572;13.460;2023-02-16T04:17:34;70.95;;;23.25;;
12869;SDS011;6503;48.572;13.460;2023-02-16T04:20:03;69.45;;;22.38;;
12869;SDS011;6503;48.572;13.460;2023-02-16T04:22:31;61.33;;;22.15;;
12869;SDS011;6503;48.572;13.460;2023-02-16T04:24:58;54.30;;;20.02;;
12869;SDS011;6503;48.572;13.460;2023-02-16T04:27:25;66.43;;;23.80;;
12869;SDS011;6503;48.572;13.460;2023-02-16T04:29:53;61.30;;;22.33;;
12869;SDS011;6503;48.572;13.460;2023-02-16T04:32:20;66.03;;;22.33;;
12869;SDS011;6503;48.572;13.460;2023-02-16T04:34:48;56.78;;;21.05;;
12869;SDS011;6503;48.572;13.460;2023-02-16T04:37:16;94.65;;;23.05;;
12869;SDS011;6503;48.572;13.460;2023-02-16T04:39:43;68.97;;;22.15;;
12869;SDS011;6503;48.572;13.460;2023-02-16T04:42:10;59.50;;;22.65;;
12869;SDS011;6503;48.572;13.460;2023-02-16T04:44:37;63.08;;;23.55;;
12869;SDS011;6503;48.572;13.460;2023-02-16T04:47:04;66.28;;;21.40;;
12869;SDS011;6503;48.572;13.460;2023-02-16T04:49:31;65.88;;;22.60;;
12869;SDS011;6503;48.572;13.460;2023-02-16T04:52:00;76.93;;;23.58;;
12869;SDS011;6503;48.572;13.460;2023-02-16T04:54:28;74.87;;;22.73;;
12869;SDS011;6503;48.572;13.460;2023-02-16T04:56:55;73.50;;;22.60;;
12869;SDS011;6503;48.572;13.460;2023-02-16T04:59:22;63.65;;;22.02;;
12869;SDS011;6503;48.572;13.460;2023-02-16T05:01:52;68.78;;;24.05;;
12869;SDS011;6503;48.572;13.460;2023-02-16T05:04:20;67.10;;;22.65;;
12869;SDS011;6503;48.572;13.460;2023-02-16T05:06:48;66.72;;;22.70;;
12869;SDS011;6503;48.572;13.460;2023-02-16T05:09:17;58.40;;;19.67;;
12869;SDS011;6503;48.572;13.460;2023-02-16T05:11:45;64.68;;;24.00;;
12869;SDS011;6503;48.572;13.460;2023-02-16T05:14:31;70.30;;;23.35;;
12869;SDS011;6503;48.572;13.460;2023-02-16T05:17:09;71.05;;;22.02;;
12869;SDS011;6503;48.572;13.460;2023-02-16T05:19:38;69.40;;;23.45;;
12869;SDS011;6503;48.572;13.460;2023-02-16T05:22:07;68.85;;;23.05;;
12869;SDS011;6503;48.572;13.460;2023-02-16T05:24:42;73.43;;;22.25;;
12869;SDS011;6503;48.572;13.460;2023-02-16T05:27:10;60.38;;;21.27;;
12869;SDS011;6503;48.572;13.460;2023-02-16T05:29:40;72.63;;;29.90;;
12869;SDS011;6503;48.572;13.460;2023-02-16T05:32:07;65.30;;;22.83;;
12869;SDS011;6503;48.572;13.460;2023-02-16T05:34:34;65.55;;;21.77;;
12869;SDS011;6503;48.572;13.460;2023-02-16T05:37:01;65.97;;;23.55;;
12869;SDS011;6503;48.572;13.460;2023-02-16T05:39:31;76.30;;;21.70;;
12869;SDS011;6503;48.572;13.460;2023-02-16T05:42:03;65.38;;;22.90;;
12869;SDS011;6503;48.572;13.460;2023-02-16T05:44:35;74.25;;;22.10;;
12869;SDS011;6503;48.572;13.460;2023-02-16T05:47:03;68.28;;;23.48;;
12869;SDS011;6503;48.572;13.460;2023-02-16T05:49:33;77.85;;;22.98;;
12869;SDS011;6503;48.572;13.460;2023-02-16T05:52:00;68.55;;;23.77;;
12869;SDS011;6503;48.572;13.460;2023-02-16T05:54:28;68.03;;;22.73;;
12869;SDS011;6503;48.572;13.460;2023-02-16T05:56:55;69.07;;;22.10;;
12869;SDS011;6503;48.572;13.460;2023-02-16T05:59:25;66.53;;;22.50;;
12869;SDS011;6503;48.572;13.460;2023-02-16T06:01:56;68.22;;;22.73;;
12869;SDS011;6503;48.572;13.460;2023-02-16T06:04:24;72.68;;;22.30;;
12869;SDS011;6503;48.572;13.460;2023-02-16T06:06:52;65.70;;;22.83;;
12869;SDS011;6503;48.572;13.460;2023-02-16T06:09:19;73.28;;;24.55;;
12869;SDS011;6503;48.572;13.460;2023-02-16T06:11:50;63.13;;;22.63;;
12869;SDS011;6503;48.572;13.460;2023-02-16T06:14:17;65.07;;;22.35;;
12869;SDS011;6503;48.572;13.460;2023-02-16T06:16:50;67.75;;;24.92;;
12869;SDS011;6503;48.572;13.460;2023-02-16T06:19:20;59.92;;;22.02;;
12869;SDS011;6503;48.572;13.460;2023-02-16T06:21:49;69.75;;;23.70;;
12869;SDS011;6503;48.572;13.460;2023-02-16T06:24:17;58.67;;;22.60;;
12869;SDS011;6503;48.572;13.460;2023-02-16T06:26:45;65.53;;;21.63;;
12869;SDS011;6503;48.572;13.460;2023-02-16T06:29:16;65.43;;;24.40;;
12869;SDS011;6503;48.572;13.460;2023-02-16T06:31:59;60.67;;;21.83;;
12869;SDS011;6503;48.572;13.460;2023-02-16T06:34:31;62.05;;;22.67;;
12869;SDS011;6503;48.572;13.460;2023-02-16T06:36:58;62.00;;;21.30;;
12869;SDS011;6503;48.572;13.460;2023-02-16T06:39:28;65.53;;;21.17;;
12869;SDS011;6503;48.572;13.460;2023-02-16T06:41:55;57.22;;;21.23;;
12869;SDS011;6503;48.572;13.460;2023-02-16T06:44:28;60.47;;;22.05;;
12869;SDS011;6503;48.572;13.460;2023-02-16T06:49:44;57.92;;;21.88;;
12869;SDS011;6503;48.572;13.460;2023-02-16T06:52:13;64.25;;;21.55;;
12869;SDS011;6503;48.572;13.460;2023-02-16T06:54:47;61.90;;;21.95;;
12869;SDS011;6503;48.572;13.460;2023-02-16T06:57:17;65.03;;;22.30;;
12869;SDS011;6503;48.572;13.460;2023-02-16T06:59:54;51.40;;;18.88;;
12869;SDS011;6503;48.572;13.460;2023-02-16T07:02:32;59.05;;;22.45;;
12869;SDS011;6503;48.572;13.460;2023-02-16T07:05:03;62.63;;;22.33;;
12869;SDS011;6503;48.572;13.460;2023-02-16T07:07:36;63.67;;;22.65;;
12869;SDS011;6503;48.572;13.460;2023-02-16T07:16:19;58.65;;;21.17;;
12869;SDS011;6503;48.572;13.460;2023-02-16T07:18:52;59.38;;;21.77;;
12869;SDS011;6503;48.572;13.460;2023-02-16T07:21:24;53.78;;;21.05;;
12869;SDS011;6503;48.572;13.460;2023-02-16T07:24:02;57.90;;;21.38;;
12869;SDS011;6503;48.572;13.460;2023-02-16T07:26:53;65.80;;;21.40;;
12869;SDS011;6503;48.572;13.460;2023-02-16T07:29:24;59.15;;;22.55;;
12869;SDS011;6503;48.572;13.460;2023-02-16T07:31:55;56.75;;;19.48;;
12869;SDS011;6503;48.572;13.460;2023-02-16T07:34:26;58.77;;;21.40;;
12869;SDS011;6503;48.572;13.460;2023-02-16T07:36:54;58.70;;;21.40;;
12869;SDS011;6503;48.572;13.460;2023-02-16T07:39:27;57.17;;;21.95;;
12869;SDS011;6503;48.572;13.460;2023-02-16T07:42:12;63.47;;;21.80;;
12869;SDS011;6503;48.572;13.460;2023-02-16T07:44:40;59.22;;;22.55;;
12869;SDS011;6503;48.572;13.460;2023-02-16T07:47:08;64.70;;;21.55;;
12869;SDS011;6503;48.572;13.460;2023-02-16T07:49:41;59.78;;;21.77;;
12869;SDS011;6503;48.572;13.460;2023-02-16T07:52:11;64.93;;;22.75;;
12869;SDS011;6503;48.572;13.460;2023-02-16T07:55:02;59.35;;;22.50;;
12869;SDS011;6503;48.572;13.460;2023-02-16T07:57:32;63.30;;;22.95;;
12869;SDS011;6503;48.572;13.460;2023-02-16T08:00:29;57.45;;;21.15;;
12869;SDS011;6503;48.572;13.460;2023-02-16T08:03:23;52.58;;;20.77;;
12869;SDS011;6503;48.572;13.460;2023-02-16T08:05:56;54.50;;;19.63;;
12869;SDS011;6503;48.572;13.460;2023-02-16T08:08:33;54.55;;;22.00;;
12869;SDS011;6503;48.572;13.460;2023-02-16T08:11:14;51.85;;;19.30;;
12869;SDS011;6503;48.572;13.460;2023-02-16T08:13:54;51.88;;;20.40;;
12869;SDS011;6503;48.572;13.460;2023-02-16T08:20:14;45.20;;;18.13;;
12869;SDS011;6503;48.572;13.460;2023-02-16T08:26:33;50.10;;;20.60;;
12869;SDS011;6503;48.572;13.460;2023-02-16T08:29:03;44.50;;;19.70;;
12869;SDS011;6503;48.572;13.460;2023-02-16T08:31:46;48.60;;;19.33;;
12869;SDS011;6503;48.572;13.460;2023-02-16T08:34:18;44.58;;;18.48;;
12869;SDS011;6503;48.572;13.460;2023-02-16T08:37:04;42.90;;;18.60;;
12869;SDS011;6503;48.572;13.460;2023-02-16T08:39:35;44.53;;;19.17;;
12869;SDS011;6503;48.572;13.460;2023-02-16T08:42:09;42.17;;;18.33;;
12869;SDS011;6503;48.572;13.460;2023-02-16T08:44:44;44.65;;;18.90;;
12869;SDS011;6503;48.572;13.460;2023-02-16T08:47:28;36.63;;;16.52;;
12869;SDS011;6503;48.572;13.460;2023-02-16T08:50:01;37.15;;;16.98;;
12869;SDS011;6503;48.572;13.460;2023-02-16T08:52:40;38.35;;;16.95;;
12869;SDS011;6503;48.572;13.460;2023-02-16T08:55:49;41.05;;;18.73;;
12869;SDS011;6503;48.572;13.460;2023-02-16T09:15:44;46.72;;;19.45;;
12869;SDS011;6503;48.572;13.460;2023-02-16T09:18:41;47.13;;;19.50;;
12869;SDS011;6503;48.572;13.460;2023-02-16T09:21:23;48.80;;;21.60;;
12869;SDS011;6503;48.572;13.460;2023-02-16T09:24:40;44.38;;;19.65;;
12869;SDS011;6503;48.572;13.460;2023-02-16T09:44:08;44.92;;;18.85;;
12869;SDS011;6503;48.572;13.460;2023-02-16T09:47:05;41.78;;;18.17;;
12869;SDS011;6503;48.572;13.460;2023-02-16T09:49:48;40.00;;;18.67;;
12869;SDS011;6503;48.572;13.460;2023-02-16T09:52:17;43.35;;;17.83;;
12869;SDS011;6503;48.572;13.460;2023-02-16T09:54:53;42.67;;;19.52;;
12869;SDS011;6503;48.572;13.460;2023-02-16T09:57:27;41.65;;;18.05;;
12869;SDS011;6503;48.572;13.460;2023-02-16T10:24:38;42.75;;;19.35;;
12869;SDS011;6503;48.572;13.460;2023-02-16T10:27:19;40.05;;;18.33;;
12869;SDS011;6503;48.572;13.460;2023-02-16T10:29:55;42.58;;;18.77;;
12869;SDS011;6503;48.572;13.460;2023-02-16T10:32:38;49.72;;;19.95;;
12869;SDS011;6503;48.572;13.460;2023-02-16T10:35:24;42.65;;;18.98;;
12869;SDS011;6503;48.572;13.460;2023-02-16T10:38:06;41.75;;;18.73;;
12869;SDS011;6503;48.572;13.460;2023-02-16T10:40:51;41.70;;;18.55;;
12869;SDS011;6503;48.572;13.460;2023-02-16T10:43:32;41.75;;;18.45;;
12869;SDS011;6503;48.572;13.460;2023-02-16T10:46:24;42.17;;;18.38;;
12869;SDS011;6503;48.572;13.460;2023-02-16T10:48:57;42.42;;;19.00;;
12869;SDS011;6503;48.572;13.460;2023-02-16T10:51:31;45.03;;;20.17;;
12869;SDS011;6503;48.572;13.460;2023-02-16T10:57:22;45.95;;;18.83;;
12869;SDS011;6503;48.572;13.460;2023-02-16T10:59:57;41.05;;;18.80;;
12869;SDS011;6503;48.572;13.460;2023-02-16T11:02:27;41.65;;;18.83;;
12869;SDS011;6503;48.572;13.460;2023-02-16T11:05:32;41.15;;;19.00;;
12869;SDS011;6503;48.572;13.460;2023-02-16T11:08:21;40.33;;;18.48;;
12869;SDS011;6503;48.572;13.460;2023-02-16T11:10:56;42.10;;;18.52;;
12869;SDS011;6503;48.572;13.460;2023-02-16T11:17:17;44.88;;;19.60;;
12869;SDS011;6503;48.572;13.460;2023-02-16T11:20:06;40.85;;;18.63;;
12869;SDS011;6503;48.572;13.460;2023-02-16T11:23:12;44.75;;;18.73;;
12869;SDS011;6503;48.572;13.460;2023-02-16T11:25:57;52.92;;;19.85;;
12869;SDS011;6503;48.572;13.460;2023-02-16T11:28:37;44.33;;;18.40;;
12869;SDS011;6503;48.572;13.460;2023-02-16T11:41:19;47.92;;;19.70;;
12869;SDS011;6503;48.572;13.460;2023-02-16T11:43:59;43.80;;;19.55;;
12869;SDS011;6503;48.572;13.460;2023-02-16T11:46:45;52.03;;;20.45;;
12869;SDS011;6503;48.572;13.460;2023-02-16T11:50:08;54.38;;;19.98;;
12869;SDS011;6503;48.572;13.460;2023-02-16T11:53:12;44.20;;;19.73;;
12869;SDS011;6503;48.572;13.460;2023-02-16T11:56:07;41.90;;;18.75;;
12869;SDS011;6503;48.572;13.460;2023-02-16T11:59:03;43.42;;;19.45;;
12869;SDS011;6503;48.572;13.460;2023-02-16T12:02:06;46.78;;;18.30;;
12869;SDS011;6503;48.572;13.460;2023-02-16T12:04:56;51.70;;;20.10;;
12869;SDS011;6503;48.572;13.460;2023-02-16T12:07:36;45.00;;;19.63;;
12869;SDS011;6503;48.572;13.460;2023-02-16T12:10:11;51.45;;;20.40;;
12869;SDS011;6503;48.572;13.460;2023-02-16T12:12:49;46.78;;;19.13;;
12869;SDS011;6503;48.572;13.460;2023-02-16T12:15:26;46.00;;;19.52;;
12869;SDS011;6503;48.572;13.460;2023-02-16T12:20:49;47.05;;;19.10;;
12869;SDS011;6503;48.572;13.460;2023-02-16T12:23:27;53.72;;;19.90;;
12869;SDS011;6503;48.572;13.460;2023-02-16T12:29:22;41.17;;;19.73;;
12869;SDS011;6503;48.572;13.460;2023-02-16T12:35:15;43.75;;;19.38;;
12869;SDS011;6503;48.572;13.460;2023-02-16T12:38:28;43.80;;;18.80;;
12869;SDS011;6503;48.572;13.460;2023-02-16T12:41:04;45.30;;;19.52;;
12869;SDS011;6503;48.572;13.460;2023-02-16T12:43:42;50.87;;;20.70;;
12869;SDS011;6503;48.572;13.460;2023-02-16T12:46:12;46.65;;;20.02;;
12869;SDS011;6503;48.572;13.460;2023-02-16T12:48:48;43.00;;;19.92;;
12869;SDS011;6503;48.572;13.460;2023-02-16T12:51:29;43.90;;;21.10;;
12869;SDS011;6503;48.572;13.460;2023-02-16T12:54:02;42.85;;;20.15;;
12869;SDS011;6503;48.572;13.460;2023-02-16T12:56:51;55.80;;;21.38;;
12869;SDS011;6503;48.572;13.460;2023-02-16T12:59:34;48.97;;;21.58;;
12869;SDS011;6503;48.572;13.460;2023-02-16T13:02:33;43.30;;;19.65;;
12869;SDS011;6503;48.572;13.460;2023-02-16T13:05:05;46.30;;;23.13;;
12869;SDS011;6503;48.572;13.460;2023-02-16T13:07:44;45.03;;;21.27;;
12869;SDS011;6503;48.572;13.460;2023-02-16T13:10:17;45.13;;;21.58;;
12869;SDS011;6503;48.572;13.460;2023-02-16T13:13:00;43.22;;;19.08;;
12869;SDS011;6503;48.572;13.460;2023-02-16T13:15:46;49.45;;;20.75;;
12869;SDS011;6503;48.572;13.460;2023-02-16T13:18:17;51.83;;;21.75;;
12869;SDS011;6503;48.572;13.460;2023-02-16T13:20:50;41.60;;;20.33;;
12869;SDS011;6503;48.572;13.460;2023-02-16T13:26:46;49.75;;;21.40;;
12869;SDS011;6503;48.572;13.460;2023-02-16T13:32:40;44.25;;;20.13;;
12869;SDS011;6503;48.572;13.460;2023-02-16T13:38:09;42.40;;;19.60;;
12869;SDS011;6503;48.572;13.460;2023-02-16T13:41:01;46.88;;;20.27;;
12869;SDS011;6503;48.572;13.460;2023-02-16T13:43:43;45.13;;;21.20;;
12869;SDS011;6503;48.572;13.460;2023-02-16T13:46:17;43.97;;;20.92;;
12869;SDS011;6503;48.572;13.460;2023-02-16T13:48:49;41.92;;;19.95;;
12869;SDS011;6503;48.572;13.460;2023-02-16T13:53:54;43.97;;;20.60;;
12869;SDS011;6503;48.572;13.460;2023-02-16T13:56:34;44.55;;;20.75;;
12869;SDS011;6503;48.572;13.460;2023-02-16T14:05:21;45.17;;;21.13;;
12869;SDS011;6503;48.572;13.460;2023-02-16T14:11:03;46.25;;;21.85;;
12869;SDS011;6503;48.572;13.460;2023-02-16T14:13:58;45.97;;;21.23;;
12869;SDS011;6503;48.572;13.460;2023-02-16T14:16:29;43.75;;;21.20;;
12869;SDS011;6503;48.572;13.460;2023-02-16T14:18:59;46.88;;;21.33;;
12869;SDS011;6503;48.572;13.460;2023-02-16T14:21:30;43.78;;;21.05;;
12869;SDS011;6503;48.572;13.460;2023-02-16T14:24:03;51.72;;;23.52;;
12869;SDS011;6503;48.572;13.460;2023-02-16T14:26:55;47.10;;;21.65;;
12869;SDS011;6503;48.572;13.460;2023-02-16T14:29:27;47.95;;;21.90;;
12869;SDS011;6503;48.572;13.460;2023-02-16T14:32:16;53.13;;;22.95;;
12869;SDS011;6503;48.572;13.460;2023-02-16T14:34:53;49.60;;;22.20;;
12869;SDS011;6503;48.572;13.460;2023-02-16T14:37:27;51.58;;;22.23;;
12869;SDS011;6503;48.572;13.460;2023-02-16T14:40:13;45.80;;;22.13;;
12869;SDS011;6503;48.572;13.460;2023-02-16T14:42:48;51.20;;;21.83;;
12869;SDS011;6503;48.572;13.460;2023-02-16T14:48:47;44.78;;;20.33;;
12869;SDS011;6503;48.572;13.460;2023-02-16T14:51:43;49.08;;;22.23;;
12869;SDS011;6503;48.572;13.460;2023-02-16T14:54:33;48.67;;;21.55;;
12869;SDS011;6503;48.572;13.460;2023-02-16T14:57:20;49.47;;;22.42;;
12869;SDS011;6503;48.572;13.460;2023-02-16T14:59:53;40.53;;;21.27;;
12869;SDS011;6503;48.572;13.460;2023-02-16T15:02:28;41.30;;;21.92;;
12869;SDS011;6503;48.572;13.460;2023-02-16T15:04:57;44.35;;;21.95;;
12869;SDS011;6503;48.572;13.460;2023-02-16T15:07:43;42.42;;;20.88;;
12869;SDS011;6503;48.572;13.460;2023-02-16T15:10:15;45.75;;;21.42;;
12869;SDS011;6503;48.572;13.460;2023-02-16T15:12:52;46.17;;;22.77;;
12869;SDS011;6503;48.572;13.460;2023-02-16T15:15:24;47.20;;;21.77;;
12869;SDS011;6503;48.572;13.460;2023-02-16T15:18:04;43.63;;;21.10;;
12869;SDS011;6503;48.572;13.460;2023-02-16T15:20:34;47.13;;;22.00;;
12869;SDS011;6503;48.572;13.460;2023-02-16T15:23:04;46.80;;;21.23;;
12869;SDS011;6503;48.572;13.460;2023-02-16T15:25:55;42.67;;;21.70;;
12869;SDS011;6503;48.572;13.460;2023-02-16T15:28:28;46.53;;;21.40;;
12869;SDS011;6503;48.572;13.460;2023-02-16T15:30:58;45.95;;;21.73;;
12869;SDS011;6503;48.572;13.460;2023-02-16T15:33:32;45.80;;;21.50;;
12869;SDS011;6503;48.572;13.460;2023-02-16T15:36:03;50.55;;;22.05;;
12869;SDS011;6503;48.572;13.460;2023-02-16T15:38:36;48.03;;;22.50;;
12869;SDS011;6503;48.572;13.460;2023-02-16T15:41:05;47.22;;;20.98;;
12869;SDS011;6503;48.572;13.460;2023-02-16T15:43:33;49.88;;;21.55;;
12869;SDS011;6503;48.572;13.460;2023-02-16T15:46:05;47.80;;;22.40;;
12869;SDS011;6503;48.572;13.460;2023-02-16T15:48:44;41.65;;;20.40;;
12869;SDS011;6503;48.572;13.460;2023-02-16T15:51:17;45.00;;;21.75;;
12869;SDS011;6503;48.572;13.460;2023-02-16T15:54:03;46.92;;;22.55;;
12869;SDS011;6503;48.572;13.460;2023-02-16T15:56:38;47.78;;;22.35;;
12869;SDS011;6503;48.572;13.460;2023-02-16T15:59:17;52.75;;;24.15;;
12869;SDS011;6503;48.572;13.460;2023-02-16T16:01:56;47.20;;;22.08;;
12869;SDS011;6503;48.572;13.460;2023-02-16T16:04:31;44.22;;;22.48;;
12869;SDS011;6503;48.572;13.460;2023-02-16T16:07:06;43.80;;;21.77;;
12869;SDS011;6503;48.572;13.460;2023-02-16T16:09:51;50.25;;;22.95;;
12869;SDS011;6503;48.572;13.460;2023-02-16T16:12:21;50.20;;;22.25;;
12869;SDS011;6503;48.572;13.460;2023-02-16T16:14:54;45.88;;;22.85;;
12869;SDS011;6503;48.572;13.460;2023-02-16T16:17:26;56.08;;;24.50;;
12869;SDS011;6503;48.572;13.460;2023-02-16T16:23:02;54.97;;;24.45;;
12869;SDS011;6503;48.572;13.460;2023-02-16T16:25:37;51.63;;;25.02;;
12869;SDS011;6503;48.572;13.460;2023-02-16T16:28:10;53.50;;;24.65;;
12869;SDS011;6503;48.572;13.460;2023-02-16T16:31:04;56.42;;;27.17;;
12869;SDS011;6503;48.572;13.460;2023-02-16T16:36:26;51.10;;;23.08;;
12869;SDS011;6503;48.572;13.460;2023-02-16T16:39:08;60.20;;;25.02;;
12869;SDS011;6503;48.572;13.460;2023-02-16T16:44:58;55.63;;;25.08;;
12869;SDS011;6503;48.572;13.460;2023-02-16T16:47:30;56.33;;;25.98;;
12869;SDS011;6503;48.572;13.460;2023-02-16T16:50:26;55.40;;;24.73;;
12869;SDS011;6503;48.572;13.460;2023-02-16T16:52:55;54.35;;;24.95;;
12869;SDS011;6503;48.572;13.460;2023-02-16T16:55:28;56.67;;;26.23;;
12869;SDS011;6503;48.572;13.460;2023-02-16T16:58:01;50.60;;;24.52;;
12869;SDS011;6503;48.572;13.460;2023-02-16T17:00:33;59.58;;;26.42;;
12869;SDS011;6503;48.572;13.460;2023-02-16T17:03:03;56.72;;;25.70;;
12869;SDS011;6503;48.572;13.460;2023-02-16T17:05:34;60.65;;;27.13;;
12869;SDS011;6503;48.572;13.460;2023-02-16T17:08:04;56.03;;;26.17;;
12869;SDS011;6503;48.572;13.460;2023-02-16T17:10:36;65.70;;;27.40;;
12869;SDS011;6503;48.572;13.460;2023-02-16T17:13:06;61.78;;;26.75;;
12869;SDS011;6503;48.572;13.460;2023-02-16T17:15:41;59.88;;;25.77;;
12869;SDS011;6503;48.572;13.460;2023-02-16T17:18:12;62.95;;;28.42;;
12869;SDS011;6503;48.572;13.460;2023-02-16T17:20:41;55.72;;;25.33;;
12869;SDS011;6503;48.572;13.460;2023-02-16T17:23:09;53.38;;;24.83;;
12869;SDS011;6503;48.572;13.460;2023-02-16T17:25:39;55.20;;;24.88;;
12869;SDS011;6503;48.572;13.460;2023-02-16T17:28:06;55.20;;;26.00;;